Terminal Aerodrome Forecast
Issued by NWS

Home | Current Version | Previous Version | Text Only | Print | Product List | Glossary On
Versions: 1 2 3 4 5 6 7 8 9 10 11 12
000
FTUS46 KSTO 172300
TAFSCK
TAF
KSCK 172340Z 1800/1824 31005KT P6SM SKC
     FM180400 33008KT P6SM SCT100 BKN200
     FM181200 VRB05KT P6SM VCSH OVC100=

USA.gov is the U.S. government's official web portal to all federal, state and local government web resources and services.